Time;durP1;ratioP1;P1;durP2;ratioP2;P2;SDS_P1;SDS_P2;PMS_P1;PMS_P2;Temp;Humidity;BMP_temperature;BMP_pressure;BME280_temperature;BME280_humidity;BME280_pressure;Samples;Min_cycle;Max_cycle;Signal;HPM_P1;HPM_P2
2022/05/08 00:02:02;;;;;;;12.65;4.70;;;12.70;99.90;;;;;;6189105;23;20427;-90
2022/05/08 00:10:49;;;;;;;8.38;5.18;;;12.70;99.90;;;;;;6170452;23;19997;-92
2022/05/08 00:13:21;;;;;;;7.75;4.72;;;12.70;99.90;;;;;;6164790;23;20033;-90
2022/05/08 00:15:49;;;;;;;8.13;5.20;;;12.70;99.90;;;;;;6191198;23;20094;-91
2022/05/08 00:18:54;;;;;;;11.43;5.57;;;12.60;99.90;;;;;;6190444;23;20005;-90
2022/05/08 00:21:51;;;;;;;10.25;5.60;;;12.60;99.90;;;;;;6190431;23;20001;-91
2022/05/08 00:24:36;;;;;;;9.00;5.50;;;12.50;99.90;;;;;;6190122;23;20498;-90
2022/05/08 00:27:06;;;;;;;11.65;6.43;;;12.50;99.90;;;;;;6212064;23;20005;-91
2022/05/08 00:29:47;;;;;;;12.52;6.28;;;12.40;99.90;;;;;;6217605;23;20024;-91
2022/05/08 00:33:06;;;;;;;8.88;5.55;;;12.60;99.90;;;;;;6213665;23;20055;-91
2022/05/08 00:36:20;;;;;;;9.30;5.38;;;12.30;99.90;;;;;;6187380;23;20012;-91
2022/05/08 00:39:27;;;;;;;9.32;5.70;;;12.30;99.90;;;;;;6188785;23;20358;-91
2022/05/08 00:54:33;;;;;;;10.80;6.18;;;12.30;99.90;;;;;;6186847;23;20102;-90
2022/05/08 00:57:15;;;;;;;10.38;6.20;;;12.20;99.90;;;;;;6184660;23;20005;-90
2022/05/08 01:00:02;;;;;;;12.10;6.18;;;12.10;99.90;;;;;;6200478;23;20010;-91
2022/05/08 01:03:02;;;;;;;12.38;6.35;;;12.10;99.90;;;;;;6183391;23;20005;-90
2022/05/08 01:05:43;;;;;;;9.80;6.38;;;12.10;99.90;;;;;;6184210;23;19997;-91
2022/05/08 01:08:15;;;;;;;10.80;6.15;;;12.10;99.90;;;;;;6184060;23;20005;-91
2022/05/08 01:10:44;;;;;;;;;;;12.10;99.90;;;;;;6184680;23;20043;-91
2022/05/08 01:16:13;;;;;;;9.80;5.63;;;12.00;99.90;;;;;;6185393;22;20443;-90
2022/05/08 01:19:35;;;;;;;;;;;;;;;;;;;;;
2022/05/08 01:31:55;;;;;;;10.82;6.10;;;11.90;99.90;;;;;;6080279;23;20067;-91
2022/05/08 01:34:26;;;;;;;11.57;6.47;;;11.90;99.90;;;;;;6181641;23;20009;-91
2022/05/08 01:37:58;;;;;;;9.85;6.03;;;12.00;99.90;;;;;;6191282;23;20005;-90
2022/05/08 01:41:19;;;;;;;8.82;5.43;;;11.80;99.90;;;;;;6167032;23;20097;-89
2022/05/08 01:43:51;;;;;;;10.07;5.30;;;11.90;99.90;;;;;;6123729;23;20347;-89
2022/05/08 01:49:52;;;;;;;9.93;5.10;;;12.30;99.90;;;;;;6155565;23;20081;-89
2022/05/08 01:55:27;;;;;;;10.93;6.32;;;11.80;99.90;;;;;;6176480;23;20025;-89
2022/05/08 01:58:27;;;;;;;9.23;4.80;;;11.80;99.90;;;;;;6190166;23;20012;-90
2022/05/08 02:01:22;;;;;;;11.57;5.70;;;11.80;99.90;;;;;;6206744;23;20001;-89
2022/05/08 02:04:42;;;;;;;;;;;;;;;;;;;;;
2022/05/08 02:07:32;;;;;;;8.02;5.47;;;11.70;99.90;;;;;;6153859;23;20018;-90
2022/05/08 02:10:02;;;;;;;9.23;5.18;;;11.70;99.90;;;;;;6127336;23;20424;-89
2022/05/08 02:15:17;;;;;;;10.43;5.80;;;11.70;99.90;;;;;;6190356;22;20033;-87
2022/05/08 02:17:44;;;;;;;10.10;5.70;;;11.80;99.90;;;;;;6180880;23;20028;-87
2022/05/08 02:20:11;;;;;;;10.65;5.88;;;11.60;99.90;;;;;;6182643;23;20324;-87
2022/05/08 02:22:37;;;;;;;10.95;6.13;;;11.70;99.90;;;;;;6207466;23;20012;-86
2022/05/08 02:25:04;;;;;;;14.40;6.72;;;11.60;99.90;;;;;;6177431;23;20006;-89
2022/05/08 02:27:38;;;;;;;10.30;6.20;;;11.60;99.90;;;;;;6154513;23;20017;-86
2022/05/08 02:30:10;;;;;;;9.50;5.10;;;11.70;99.90;;;;;;6153666;23;20080;-86
2022/05/08 02:32:36;;;;;;;;;;;11.60;99.90;;;;;;6155070;23;19994;-86
2022/05/08 02:35:03;;;;;;;10.52;6.10;;;11.50;99.90;;;;;;6153017;23;19912;-86
2022/05/08 02:37:29;;;;;;;12.27;6.50;;;11.60;99.90;;;;;;6153881;23;20131;-87
2022/05/08 02:39:55;;;;;;;10.55;5.55;;;11.60;99.90;;;;;;6176617;23;20505;-86
2022/05/08 02:42:20;;;;;;;10.65;5.70;;;11.50;99.90;;;;;;6177206;23;20321;-87
2022/05/08 02:44:46;;;;;;;12.13;6.38;;;11.50;99.90;;;;;;6177623;23;20068;-86
2022/05/08 02:47:11;;;;;;;10.63;6.28;;;11.40;99.90;;;;;;6154869;23;20021;-87
2022/05/08 02:49:37;;;;;;;10.23;6.30;;;11.40;99.90;;;;;;6177163;23;20459;-86
2022/05/08 02:52:03;;;;;;;10.77;6.20;;;11.40;99.90;;;;;;6178337;23;20006;-86
2022/05/08 02:54:29;;;;;;;12.05;6.50;;;11.40;99.90;;;;;;6176884;23;20005;-85
2022/05/08 02:59:38;;;;;;;11.55;6.90;;;11.30;99.90;;;;;;6154241;23;20126;-86
2022/05/08 03:02:04;;;;;;;11.13;7.20;;;11.30;99.90;;;;;;6152972;23;19997;-87
2022/05/08 03:04:30;;;;;;;10.30;6.57;;;11.30;99.90;;;;;;6175795;23;20455;-86
2022/05/08 03:06:55;;;;;;;10.18;6.18;;;11.20;99.90;;;;;;6153298;23;20420;-85
2022/05/08 03:09:21;;;;;;;11.30;6.38;;;11.20;99.90;;;;;;6153352;23;20001;-86
2022/05/08 03:11:46;;;;;;;11.50;6.70;;;11.20;99.90;;;;;;6148767;23;20502;-86
2022/05/08 03:14:12;;;;;;;11.23;6.50;;;11.20;99.90;;;;;;6178450;23;20005;-87
2022/05/08 03:16:38;;;;;;;12.18;6.07;;;11.20;99.90;;;;;;6182439;23;20008;-85
2022/05/08 03:19:04;;;;;;;10.35;6.60;;;11.20;99.90;;;;;;6183302;23;20079;-86
2022/05/08 03:21:30;;;;;;;11.18;6.47;;;11.10;99.90;;;;;;6156577;23;20008;-87
2022/05/08 03:23:55;;;;;;;11.50;6.28;;;11.10;99.90;;;;;;6182932;23;20076;-87
2022/05/08 03:26:21;;;;;;;11.27;6.72;;;11.10;99.90;;;;;;6182938;23;20076;-87
2022/05/08 03:28:47;;;;;;;10.82;6.57;;;11.10;99.90;;;;;;6157181;23;20009;-87
2022/05/08 03:31:13;;;;;;;10.45;6.55;;;11.10;99.90;;;;;;6157343;23;20088;-87
2022/05/08 03:33:40;;;;;;;10.65;6.55;;;11.10;99.90;;;;;;6156415;23;20086;-86
2022/05/08 03:36:06;;;;;;;11.23;6.95;;;11.00;99.90;;;;;;6182963;23;19997;-86
2022/05/08 03:38:33;;;;;;;12.25;7.28;;;11.10;99.90;;;;;;6155600;23;20028;-86
2022/05/08 03:41:00;;;;;;;11.70;6.82;;;11.00;99.90;;;;;;6157639;23;20005;-87
2022/05/08 03:43:26;;;;;;;11.70;6.35;;;11.00;99.90;;;;;;6156378;23;20104;-86
2022/05/08 03:45:51;;;;;;;11.20;6.45;;;11.10;99.90;;;;;;6156214;23;20009;-86
2022/05/08 03:48:18;;;;;;;12.60;6.43;;;11.10;99.90;;;;;;6156469;23;20096;-87
2022/05/08 03:50:44;;;;;;;15.35;7.10;;;11.00;99.90;;;;;;6157709;23;20012;-86
2022/05/08 03:53:10;;;;;;;9.98;5.85;;;11.00;99.90;;;;;;6156525;23;20009;-87
2022/05/08 03:55:36;;;;;;;12.05;6.80;;;11.10;99.90;;;;;;6183307;23;19997;-86
2022/05/08 03:58:04;;;;;;;11.88;7.22;;;11.00;99.90;;;;;;6182456;23;20044;-86
2022/05/08 04:00:30;;;;;;;12.30;7.82;;;11.00;99.90;;;;;;6158279;23;20088;-86
2022/05/08 04:02:56;;;;;;;11.73;6.68;;;11.00;99.90;;;;;;6159079;23;20012;-86
2022/05/08 04:08:10;;;;;;;15.75;7.50;;;11.00;99.90;;;;;;6183468;23;20005;-86
2022/05/08 04:10:36;;;;;;;10.90;6.60;;;11.10;99.90;;;;;;6157999;23;20012;-86
2022/05/08 04:13:04;;;;;;;8.45;5.18;;;11.00;99.90;;;;;;6158769;23;20505;-86
2022/05/08 04:18:14;;;;;;;11.88;7.10;;;10.90;99.90;;;;;;6189014;23;20064;-86
2022/05/08 04:20:40;;;;;;;11.85;7.50;;;10.90;99.90;;;;;;6186868;23;20001;-86
2022/05/08 04:25:51;;;;;;;12.32;6.75;;;10.90;99.90;;;;;;6183964;23;20012;-87
2022/05/08 04:28:19;;;;;;;10.70;7.18;;;10.90;99.90;;;;;;6183748;23;20001;-86
2022/05/08 04:30:45;;;;;;;13.05;7.47;;;10.90;99.90;;;;;;6157378;23;20439;-87
2022/05/08 04:33:11;;;;;;;12.75;7.68;;;10.90;99.90;;;;;;6157550;23;20005;-85
2022/05/08 04:35:36;;;;;;;12.73;7.60;;;10.90;99.90;;;;;;6156981;23;20085;-85
2022/05/08 04:38:02;;;;;;;11.73;7.15;;;10.90;99.90;;;;;;6157737;23;20080;-86
2022/05/08 04:40:30;;;;;;;11.40;6.70;;;10.90;99.90;;;;;;6156389;23;20012;-87
2022/05/08 04:42:56;;;;;;;11.60;7.22;;;11.00;99.90;;;;;;6157990;23;20004;-86
2022/05/08 04:45:22;;;;;;;11.80;6.88;;;10.90;99.90;;;;;;6184582;23;20004;-86
2022/05/08 04:47:50;;;;;;;11.77;7.30;;;10.90;99.90;;;;;;6183267;23;20080;-86
2022/05/08 04:50:16;;;;;;;12.85;7.55;;;10.90;99.90;;;;;;6156049;23;20005;-86
2022/05/08 04:52:41;;;;;;;12.48;7.03;;;10.90;99.90;;;;;;6156278;23;20055;-86
2022/05/08 04:55:07;;;;;;;11.57;6.93;;;10.90;99.90;;;;;;6155799;23;20197;-86
2022/05/08 04:57:33;;;;;;;12.82;6.85;;;11.00;99.90;;;;;;6154982;23;20005;-86
2022/05/08 05:00:00;;;;;;;11.40;6.75;;;11.00;99.90;;;;;;6156802;23;20001;-86
2022/05/08 05:02:26;;;;;;;12.65;7.13;;;11.00;99.90;;;;;;6156994;23;20031;-86
2022/05/08 05:04:53;;;;;;;10.85;6.55;;;11.10;99.90;;;;;;6156033;23;20440;-86
2022/05/08 05:07:21;;;;;;;9.75;6.57;;;11.10;99.90;;;;;;6155224;23;20063;-87
2022/05/08 05:09:47;;;;;;;12.40;6.82;;;11.10;99.90;;;;;;6176695;23;20781;-86
2022/05/08 05:12:13;;;;;;;14.43;7.43;;;11.10;99.90;;;;;;6155142;23;20005;-85
2022/05/08 05:14:38;;;;;;;11.65;7.15;;;11.10;99.90;;;;;;6182546;23;20020;-87
2022/05/08 05:17:05;;;;;;;12.38;7.45;;;11.10;99.90;;;;;;6157470;23;20012;-86
2022/05/08 05:19:30;;;;;;;10.40;6.82;;;11.10;99.90;;;;;;6183729;23;20105;-87
2022/05/08 05:21:56;;;;;;;11.45;6.90;;;11.20;99.90;;;;;;6159743;23;20001;-86
2022/05/08 05:24:25;;;;;;;12.27;7.40;;;11.10;99.90;;;;;;6157791;23;20041;-86
2022/05/08 05:26:52;;;;;;;12.25;7.00;;;11.30;99.90;;;;;;6156544;23;20032;-85
2022/05/08 05:29:18;;;;;;;12.25;7.20;;;11.20;99.90;;;;;;6185308;23;20000;-86
2022/05/08 05:31:43;;;;;;;11.70;7.60;;;11.40;99.90;;;;;;6161855;23;20062;-86
2022/05/08 05:34:09;;;;;;;12.48;8.02;;;11.30;99.90;;;;;;6186439;23;20009;-87
2022/05/08 05:36:35;;;;;;;14.80;7.57;;;11.30;99.90;;;;;;6185705;23;20061;-86
2022/05/08 05:39:00;;;;;;;12.23;7.45;;;11.30;99.90;;;;;;6184286;23;20001;-86
2022/05/08 05:41:26;;;;;;;12.48;7.70;;;11.40;99.90;;;;;;6159317;23;20094;-87
2022/05/08 05:43:52;;;;;;;12.15;6.80;;;11.30;99.90;;;;;;6158998;23;20489;-86
2022/05/08 05:49:04;;;;;;;15.85;7.45;;;11.50;99.90;;;;;;6184641;23;20011;-87
2022/05/08 05:51:29;;;;;;;11.05;6.93;;;11.50;99.90;;;;;;6185119;23;20009;-87
2022/05/08 05:53:55;;;;;;;12.43;7.22;;;11.60;99.90;;;;;;6158811;23;20059;-87
2022/05/08 05:56:21;;;;;;;12.75;7.18;;;11.40;99.90;;;;;;6158881;23;20060;-87
2022/05/08 05:58:46;;;;;;;13.88;7.80;;;11.50;99.90;;;;;;6183376;23;20062;-87
2022/05/08 06:01:12;;;;;;;15.07;7.65;;;11.50;99.90;;;;;;6158747;23;20001;-86
2022/05/08 06:03:38;;;;;;;12.68;8.07;;;11.30;99.90;;;;;;6159575;23;20494;-87
2022/05/08 06:06:04;;;;;;;13.20;7.97;;;11.60;99.90;;;;;;6156586;23;20498;-86
2022/05/08 06:08:30;;;;;;;12.50;7.63;;;11.70;99.90;;;;;;6157977;23;20009;-87
2022/05/08 06:10:55;;;;;;;12.02;7.10;;;11.70;99.90;;;;;;6158156;23;20005;-87
2022/05/08 06:13:21;;;;;;;13.10;7.47;;;11.90;99.90;;;;;;6183609;23;20008;-86
2022/05/08 06:15:47;;;;;;;15.80;7.47;;;11.90;99.90;;;;;;6158520;23;20024;-86
2022/05/08 06:18:13;;;;;;;13.70;7.68;;;11.90;99.90;;;;;;6184252;23;20096;-86
2022/05/08 06:20:38;;;;;;;12.82;7.22;;;12.20;99.90;;;;;;6155517;23;20009;-87
2022/05/08 06:23:04;;;;;;;12.68;6.97;;;12.10;99.90;;;;;;6164617;23;20080;-86
2022/05/08 06:25:30;;;;;;;13.23;7.32;;;12.10;99.90;;;;;;6190337;23;20020;-87
2022/05/08 06:27:56;;;;;;;12.52;7.60;;;12.40;99.90;;;;;;6190324;23;20008;-87
2022/05/08 06:30:24;;;;;;;15.02;6.97;;;12.30;99.90;;;;;;6188857;23;20032;-86
2022/05/08 06:32:51;;;;;;;13.32;7.00;;;12.20;99.90;;;;;;6161822;23;20407;-87
2022/05/08 06:35:17;;;;;;;12.40;7.28;;;12.30;99.90;;;;;;6158750;23;20005;-87
2022/05/08 06:37:42;;;;;;;12.18;7.03;;;12.40;99.90;;;;;;6156479;23;20012;-87
2022/05/08 06:40:12;;;;;;;13.40;7.15;;;12.40;99.90;;;;;;6185793;23;20009;-86
2022/05/08 06:42:38;;;;;;;11.95;6.82;;;12.50;99.90;;;;;;6184751;23;20017;-87
2022/05/08 06:45:04;;;;;;;11.32;7.07;;;12.70;99.90;;;;;;6156470;23;20005;-87
2022/05/08 06:47:30;;;;;;;12.98;7.45;;;12.70;99.90;;;;;;6156525;23;20005;-87
2022/05/08 06:49:55;;;;;;;13.73;7.53;;;12.70;99.90;;;;;;6157134;23;20047;-87
2022/05/08 06:52:21;;;;;;;11.65;7.15;;;12.70;99.90;;;;;;6183739;23;20429;-87
2022/05/08 06:54:47;;;;;;;11.77;7.20;;;12.70;99.90;;;;;;6182564;23;20411;-87
2022/05/08 06:57:12;;;;;;;11.93;7.03;;;12.80;99.90;;;;;;6181813;23;20427;-87
2022/05/08 07:02:22;;;;;;;11.95;6.78;;;12.80;99.90;;;;;;6182359;23;20075;-86
2022/05/08 07:04:48;;;;;;;11.25;6.80;;;12.90;99.90;;;;;;6155209;23;20017;-87
2022/05/08 07:07:14;;;;;;;11.77;7.00;;;13.00;99.90;;;;;;6155784;23;20005;-87
2022/05/08 07:09:39;;;;;;;11.00;6.35;;;13.10;99.90;;;;;;6183014;23;20076;-87
2022/05/08 07:12:06;;;;;;;13.45;7.03;;;13.20;99.90;;;;;;6185257;23;20005;-87
2022/05/08 07:14:34;;;;;;;10.90;6.47;;;13.40;99.90;;;;;;6184950;23;20009;-88
2022/05/08 07:17:00;;;;;;;10.70;6.70;;;13.30;99.90;;;;;;6160291;23;20090;-88
2022/05/08 07:19:26;;;;;;;11.45;7.00;;;13.50;99.90;;;;;;6164597;23;20033;-89
2022/05/08 07:21:51;;;;;;;10.00;6.22;;;13.70;99.90;;;;;;6157551;23;20005;-89
2022/05/08 07:24:17;;;;;;;11.32;6.78;;;13.80;99.90;;;;;;6159235;23;20012;-89
2022/05/08 07:26:45;;;;;;;9.63;5.65;;;13.70;99.90;;;;;;6161025;23;20380;-89
2022/05/08 07:29:10;;;;;;;10.07;5.40;;;14.00;99.90;;;;;;6186214;23;20005;-89
2022/05/08 07:31:37;;;;;;;12.00;6.18;;;14.10;99.90;;;;;;6159435;23;20720;-89
2022/05/08 07:36:49;;;;;;;7.65;5.03;;;14.40;99.90;;;;;;6186575;23;20054;-89
2022/05/08 07:39:15;;;;;;;8.27;5.38;;;14.50;99.90;;;;;;6185655;23;20000;-88
2022/05/08 07:41:40;;;;;;;10.75;5.65;;;14.60;99.90;;;;;;6185469;23;20327;-88
2022/05/08 07:44:06;;;;;;;9.93;5.38;;;14.70;99.90;;;;;;6159311;23;20004;-89
2022/05/08 07:46:33;;;;;;;8.02;4.78;;;14.90;99.90;;;;;;6158583;23;20464;-88
2022/05/08 07:48:58;;;;;;;7.25;4.45;;;15.00;99.90;;;;;;6187545;23;20005;-88
2022/05/08 07:51:24;;;;;;;6.50;4.38;;;15.00;99.90;;;;;;6187995;23;20008;-89
2022/05/08 07:53:50;;;;;;;8.30;4.47;;;15.10;99.90;;;;;;6160940;23;20012;-90
2022/05/08 07:56:18;;;;;;;6.95;4.47;;;15.40;99.90;;;;;;6186472;23;20329;-90
2022/05/08 07:58:44;;;;;;;8.75;4.32;;;15.40;99.90;;;;;;6190046;23;20076;-89
2022/05/08 08:01:10;;;;;;;8.45;4.07;;;15.60;99.90;;;;;;6195784;23;20000;-89
2022/05/08 08:03:36;;;;;;;10.23;4.40;;;15.80;99.90;;;;;;6196541;23;20000;-89
2022/05/08 08:06:02;;;;;;;8.15;4.20;;;16.20;99.90;;;;;;6190080;23;20015;-89
2022/05/08 08:08:28;;;;;;;6.00;3.53;;;16.70;99.90;;;;;;6164658;23;20012;-89
2022/05/08 08:10:58;;;;;;;6.68;3.55;;;17.00;99.90;;;;;;6190393;23;20001;-89
2022/05/08 08:13:28;;;;;;;5.95;3.40;;;17.30;99.90;;;;;;6160651;23;20009;-89
2022/05/08 08:15:54;;;;;;;6.00;3.60;;;17.70;99.90;;;;;;6184153;23;20044;-89
2022/05/08 08:18:19;;;;;;;5.68;3.17;;;18.00;99.90;;;;;;6161143;23;20070;-88
2022/05/08 08:20:45;;;;;;;6.07;3.40;;;18.00;99.90;;;;;;6186366;23;20055;-88
2022/05/08 08:23:12;;;;;;;5.63;3.00;;;18.30;99.90;;;;;;6183301;23;20005;-88
2022/05/08 08:25:38;;;;;;;5.82;3.22;;;18.40;99.90;;;;;;6185115;23;20005;-88
2022/05/08 08:28:04;;;;;;;5.20;2.42;;;18.60;99.90;;;;;;6154207;23;20005;-88
2022/05/08 08:30:30;;;;;;;5.13;2.70;;;18.90;99.90;;;;;;6159013;23;20040;-88
2022/05/08 08:33:30;;;;;;;4.63;2.67;;;19.00;99.90;;;;;;6174819;23;20027;-88
2022/05/08 08:35:56;;;;;;;5.65;2.92;;;19.10;99.90;;;;;;6179202;23;20104;-87
2022/05/08 08:38:27;;;;;;;4.93;2.65;;;19.30;99.90;;;;;;6211628;23;20024;-87
2022/05/08 08:41:08;;;;;;;7.05;2.90;;;19.30;99.90;;;;;;6212117;23;20048;-88
2022/05/08 08:49:36;;;;;;;5.13;2.60;;;19.70;99.90;;;;;;6189151;23;20117;-88
2022/05/08 08:52:06;;;;;;;4.93;3.05;;;19.80;99.90;;;;;;6211562;23;20012;-89
2022/05/08 08:54:34;;;;;;;5.38;3.03;;;19.70;99.90;;;;;;6219325;23;20024;-88
2022/05/08 08:57:05;;;;;;;4.63;2.85;;;19.50;99.90;;;;;;6223620;23;20007;-88
2022/05/08 08:59:41;;;;;;;6.30;3.35;;;19.40;99.90;;;;;;6184676;23;20367;-87
2022/05/08 09:02:21;;;;;;;4.35;2.60;;;19.50;99.90;;;;;;6185115;23;20012;-88
2022/05/08 09:04:54;;;;;;;4.88;2.72;;;19.20;99.90;;;;;;6187084;23;20058;-88
2022/05/08 09:07:50;;;;;;;4.70;2.80;;;19.10;99.90;;;;;;6187121;23;20043;-89
2022/05/08 09:10:24;;;;;;;4.82;3.08;;;19.10;99.90;;;;;;6187109;23;20016;-89
2022/05/08 09:12:53;;;;;;;6.53;3.25;;;19.10;99.90;;;;;;6186385;23;20034;-89
2022/05/08 09:15:30;;;;;;;5.32;3.05;;;19.30;99.90;;;;;;6187015;23;20005;-89
2022/05/08 09:18:06;;;;;;;5.43;2.92;;;19.20;99.90;;;;;;6212944;23;20008;-89
2022/05/08 09:20:51;;;;;;;4.55;2.90;;;19.40;99.90;;;;;;6213087;23;20011;-88
2022/05/08 09:23:25;;;;;;;5.95;3.10;;;19.20;99.90;;;;;;6186765;23;20004;-88
2022/05/08 09:26:11;;;;;;;4.88;2.70;;;19.30;99.90;;;;;;6161972;23;20008;-88
2022/05/08 09:28:46;;;;;;;6.47;2.92;;;19.20;99.90;;;;;;6214155;23;20490;-89
2022/05/08 09:31:20;;;;;;;5.32;3.08;;;19.10;99.90;;;;;;6213497;23;20011;-89
2022/05/08 09:34:04;;;;;;;4.78;2.67;;;19.00;99.90;;;;;;6186258;23;20008;-89
2022/05/08 09:36:39;;;;;;;5.10;2.95;;;19.10;99.90;;;;;;6185679;23;20001;-90
2022/05/08 09:39:23;;;;;;;4.22;2.70;;;19.20;99.90;;;;;;6185764;23;20418;-88
2022/05/08 09:42:03;;;;;;;6.55;2.80;;;19.20;99.90;;;;;;6183820;23;20005;-89
2022/05/08 09:45:20;;;;;;;6.22;2.80;;;19.50;99.90;;;;;;6185080;23;20009;-88
2022/05/08 09:51:22;;;;;;;4.60;2.97;;;19.50;99.90;;;;;;6166881;23;20038;-89
2022/05/08 09:54:20;;;;;;;6.65;2.95;;;19.50;99.90;;;;;;6212617;23;20001;-89
2022/05/08 09:56:59;;;;;;;4.85;2.85;;;19.50;99.90;;;;;;6222816;23;20072;-89
2022/05/08 09:59:53;;;;;;;7.22;3.72;;;19.60;99.90;;;;;;6196616;23;20200;-87
2022/05/08 10:02:33;;;;;;;5.70;3.03;;;19.70;99.90;;;;;;6187436;23;20005;-88
2022/05/08 10:05:37;;;;;;;5.88;3.33;;;19.60;99.90;;;;;;6191625;23;20010;-87
2022/05/08 10:08:21;;;;;;;5.60;2.92;;;19.40;99.90;;;;;;6188378;23;20005;-90
2022/05/08 10:14:29;;;;;;;6.55;3.30;;;19.90;99.90;;;;;;6205675;23;20011;-88
2022/05/08 10:17:17;;;;;;;;;;;19.90;99.90;;;;;;6183804;23;20067;-89
2022/05/08 10:20:10;;;;;;;4.72;2.85;;;19.90;99.90;;;;;;6184346;23;19924;-88
2022/05/08 10:26:45;;;;;;;6.25;2.38;;;19.90;99.90;;;;;;6061550;23;20035;-88
2022/05/08 10:29:32;;;;;;;6.13;2.08;;;20.10;99.90;;;;;;6055256;23;20015;-90
2022/05/08 10:31:58;;;;;;;5.85;2.38;;;20.10;99.90;;;;;;6060935;23;20386;-90
2022/05/08 10:38:54;;;;;;;4.30;1.83;;;21.10;99.40;;;;;;6036481;23;20469;-89
2022/05/08 10:45:26;;;;;;;2.97;1.48;;;22.00;97.90;;;;;;6090928;23;20009;-89
2022/05/08 10:48:49;;;;;;;;;;;;;;;;;;;;;
2022/05/08 10:55:05;;;;;;;2.92;1.38;;;22.20;94.60;;;;;;6114367;23;20434;-89
2022/05/08 10:58:22;;;;;;;2.85;1.55;;;22.30;95.00;;;;;;6185742;23;20453;-89
2022/05/08 11:09:06;;;;;;;3.15;1.55;;;22.40;94.00;;;;;;6008605;23;20050;-88
2022/05/08 11:11:42;;;;;;;3.03;1.40;;;22.60;94.20;;;;;;6032510;23;20011;-88
2022/05/08 11:15:03;;;;;;;2.67;1.38;;;22.60;93.30;;;;;;6008860;23;20011;-90
2022/05/08 11:18:25;;;;;;;2.23;1.20;;;22.80;93.40;;;;;;6100913;23;20006;-87
2022/05/08 11:21:17;;;;;;;3.38;1.70;;;23.00;93.50;;;;;;6174777;23;20240;-88
2022/05/08 11:41:17;;;;;;;;;;;;;;;;;;;;;
2022/05/08 11:44:49;;;;;;;2.65;1.38;;;23.20;91.90;;;;;;6211828;23;20071;-89
2022/05/08 11:48:05;;;;;;;2.50;1.20;;;23.10;91.00;;;;;;6173401;23;20044;-88
2022/05/08 11:51:06;;;;;;;2.28;1.10;;;23.20;90.50;;;;;;6179231;23;20019;-88
2022/05/08 11:57:47;;;;;;;1.50;0.88;;;23.30;88.40;;;;;;6212110;23;20038;-88
2022/05/08 12:26:01;;;;;;;;;;;;;;;;;;;;;
2022/05/08 12:35:51;;;;;;;2.35;1.20;;;22.90;85.60;;;;;;6096366;23;20345;-89
2022/05/08 12:52:45;;;;;;;3.20;1.48;;;22.60;86.80;;;;;;6186063;23;20029;-89
2022/05/08 13:05:18;;;;;;;1.80;0.73;;;22.60;85.60;;;;;;6215748;23;20300;-90
2022/05/08 13:23:11;;;;;;;;;;;;;;;;;;;;;
2022/05/08 13:30:19;;;;;;;3.47;1.05;;;22.30;84.10;;;;;;6040458;23;20054;-88
2022/05/08 13:33:24;;;;;;;2.95;0.98;;;22.50;85.10;;;;;;6049493;23;20013;-88
2022/05/08 13:40:31;;;;;;;;;;;;;;;;;;;;;
2022/05/08 13:43:19;;;;;;;1.88;1.02;;;22.40;84.30;;;;;;6101304;23;20029;-89
2022/05/08 13:46:58;;;;;;;;;;;;;;;;;;;;;
2022/05/08 13:50:06;;;;;;;;;;;;;;;;;;;;;
2022/05/08 13:56:22;;;;;;;2.30;0.90;;;23.20;86.20;;;;;;6185334;23;20020;-89
2022/05/08 14:09:35;;;;;;;2.95;1.35;;;22.90;86.70;;;;;;5997046;23;20030;-91
2022/05/08 14:15:23;;;;;;;2.42;1.10;;;23.30;85.70;;;;;;5951300;24;20033;-90
2022/05/08 14:18:25;;;;;;;2.58;1.10;;;23.30;84.00;;;;;;5894206;24;20286;-90
2022/05/08 14:21:50;;;;;;;4.13;1.08;;;23.30;84.40;;;;;;5940155;24;20019;-89
2022/05/08 14:24:19;;;;;;;5.43;1.30;;;23.50;85.00;;;;;;6064506;23;20390;-89
2022/05/08 14:36:01;;;;;;;2.63;1.25;;;23.90;83.20;;;;;;6093308;23;20017;-89
2022/05/08 14:36:50;;;;;;;2.15;1.05;;;24.30;84.80;;;;;;6091179;23;20026;-89
2022/05/08 14:43:11;;;;;;;1.80;1.00;;;23.70;82.60;;;;;;6153762;23;20072;-88
2022/05/08 14:45:37;;;;;;;2.38;1.08;;;23.10;84.00;;;;;;6129402;23;20036;-90
2022/05/08 14:48:29;;;;;;;2.85;1.10;;;23.10;84.60;;;;;;6152770;23;20005;-90
2022/05/08 14:54:04;;;;;;;2.03;0.88;;;22.70;87.70;;;;;;6178092;23;20082;-90
2022/05/08 14:57:06;;;;;;;1.85;0.93;;;22.70;86.50;;;;;;6184880;23;20643;-91
2022/05/08 14:59:32;;;;;;;3.15;1.20;;;22.60;85.40;;;;;;6185188;23;20005;-90
2022/05/08 15:02:15;;;;;;;2.58;1.10;;;23.00;87.00;;;;;;6181295;23;20008;-91
2022/05/08 15:04:52;;;;;;;3.30;1.48;;;23.30;84.50;;;;;;6181337;23;20009;-91
2022/05/08 15:07:46;;;;;;;2.83;1.00;;;23.30;83.30;;;;;;6179941;23;20016;-92
2022/05/08 15:10:23;;;;;;;1.90;1.13;;;23.50;83.60;;;;;;6179602;23;20312;-91
2022/05/08 15:13:24;;;;;;;2.30;1.10;;;23.80;83.60;;;;;;6180038;23;20033;-91
2022/05/08 15:16:32;;;;;;;;;;;23.90;82.00;;;;;;6177861;23;20009;-92
2022/05/08 15:22:47;;;;;;;2.92;0.80;;;23.80;81.40;;;;;;6067457;23;20492;-91
2022/05/08 15:25:48;;;;;;;2.38;1.10;;;24.00;80.60;;;;;;6026491;23;20449;-90
2022/05/08 15:28:31;;;;;;;;;;;;;;;;;;;;;
2022/05/08 15:31:54;;;;;;;1.77;0.90;;;24.20;80.70;;;;;;6064440;23;20062;-90
2022/05/08 15:34:42;;;;;;;;;;;;;;;;;;;;;
2022/05/08 15:37:15;;;;;;;2.85;1.00;;;23.90;81.10;;;;;;6154015;23;20078;-90
2022/05/08 15:39:51;;;;;;;3.47;1.20;;;23.50;81.90;;;;;;6176340;23;20002;-92
2022/05/08 15:43:10;;;;;;;;;;;;;;;;;;;;;
2022/05/08 15:49:46;;;;;;;;;;;;;;;;;;;;;
2022/05/08 15:57:45;;;;;;;2.38;1.20;;;22.80;82.80;;;;;;6211578;22;20026;-91
2022/05/08 16:25:52;;;;;;;1.80;0.80;;;21.70;90.00;;;;;;6151979;23;20041;-90
2022/05/08 16:29:01;;;;;;;4.07;1.20;;;21.70;88.80;;;;;;6120287;23;20009;-90
2022/05/08 16:35:49;;;;;;;;;;;21.60;89.90;;;;;;6153520;23;20024;-91
2022/05/08 16:43:13;;;;;;;3.22;1.00;;;21.60;90.10;;;;;;6108558;23;20010;-89
2022/05/08 16:46:30;;;;;;;2.75;1.05;;;21.60;90.20;;;;;;6033835;23;20007;-90
2022/05/08 16:48:56;;;;;;;2.92;1.13;;;21.40;90.40;;;;;;6038097;23;20003;-90
2022/05/08 16:58:28;;;;;;;2.20;0.90;;;21.10;90.70;;;;;;6101339;23;20160;-90
2022/05/08 17:17:31;;;;;;;;;;;;;;;;;;;;;
2022/05/08 17:20:00;;;;;;;1.90;1.10;;;20.80;92.40;;;;;;6196094;23;20510;-91
2022/05/08 17:39:53;;;;;;;2.53;1.20;;;20.20;93.00;;;;;;6121752;23;20610;-88
2022/05/08 17:43:05;;;;;;;2.72;1.30;;;20.10;93.30;;;;;;6183638;23;20005;-88
2022/05/08 17:45:43;;;;;;;2.33;1.13;;;20.00;93.80;;;;;;6186185;23;20043;-88
